x

West Orca Bay - 8nm Nw Of Hinchinbrook Is , Ak (46060) Wave Buoy

8:50pm - Mon 27th Apr 2015 All times are AKDT. -8 hours from GMT.

  • Sig Wave height 2.0ft
  • Swell Direction
  • Peak Period 10s
  • Average Period 6s
  • Wind
    7mph
  • Sea Temp 44°f
  • Air Temp 43°f
  • Sea Pressure 1006.9mb
  • West Orca Bay - 8nm Nw Of Hinchinbrook  Is , Ak
  • West Orca Bay - 8nm Nw Of Hinchinbrook  Is , Ak

More Historic Weather Station data

Upgrade to MSW Pro to gain access to the past 30 days of data for over 8000 Wavebouys and Weather Stations around the globe.

Join Pro

Comparision Forecast

View Surf forecast
   
Mon 04/27 8:50pm 2ft 10s 6s 7
mph
1006.9mb 44f 43f
7:50pm 2ft 9s 5s 7 9 mph 1007.1mb 44f 43f
6:50pm 2ft 10s 6s 11 18 mph 1007.5mb 44f 44f
5:50pm 2ft 10s 5s 2 4 mph 1007.6mb 44f 43f
4:50pm 2ft 11s 5s 11 13 mph 1007.9mb 44f 44f
3:50pm 2ft 10s 4s 9 11 mph 1008.2mb 44f 44f
2:50pm 1.6ft 9s 5s 16 20 mph 1008mb 44f 44f
1:50pm 1.6ft 11s 5s 11 13 mph 1008.1mb 44f 44f
12:50pm 2ft 11s 4s 11 13 mph 1008.2mb 43f 44f
11:50am 2.5ft 11s 4s 13 16 mph 1007.9mb 43f 44f
10:50am 2ft 10s 4s 13 16 mph 1007.6mb 43f 44f
9:50am 2.5ft 11s 4s 16 18 mph 1007.2mb 43f 43f
8:50am 2.5ft 10s 5s 16 20 mph 1006.8mb 43f 43f
7:50am 2.5ft 11s 5s 13 18 mph 1006.4mb 43f 43f
6:50am 3ft 10s 6s 16 20 mph 1006.1mb 43f 43f
5:50am 2.5ft 10s 5s 13 16 mph 1005.8mb 44f 43f
4:50am 2.5ft 11s 6s 13 16 mph 1005.5mb 44f 44f
3:50am 3ft 11s 8s 9 11 mph 1005.2mb 44f 44f
2:50am 3.5ft 11s 9s 9 11 mph 1004.9mb 44f 45f
1:50am 2.5ft 11s 8s 7 9 mph 1004.6mb 44f 44f
12:50am 2.5ft 11s 8s 11 13 mph 1004.2mb 44f 45f
Sun 04/26 11:50pm 2.5ft 11s 7s 9
mph
1003.6mb 44f 44f
10:50pm 2.5ft 12s 6s 11 13 mph 1003.4mb 44f 44f
9:50pm 2.5ft 12s 7s 18 22 mph 1002.9mb 44f 44f
8:50pm 3.5ft 11s 7s 13 20 mph 1002.5mb 45f 46f
7:50pm 3.5ft 12s 8s 9
mph
1001.6mb 45f 46f
6:50pm 3.5ft 11s 8s 7
mph
1001.7mb 45f 46f
5:50pm 3.5ft 12s 8s 4 7 mph 1001.6mb 45f 46f
4:50pm 3.5ft 11s 9s 7 9 mph 1001.4mb 45f 46f
3:50pm 3.5ft 12s 9s 7 9 mph 1001.4mb 44f 46f
2:50pm 2.5ft 11s 9s 7 9 mph 1001.5mb 45f 46f
1:50pm 1.3ft 9s 7s 7 9 mph 1001.4mb 45f 46f
12:50pm 1.3ft 8s 6s  -  2 mph 1001.2mb 45f 46f
11:50am 1ft 7s 5s  -  mph 1001.2mb 44f 46f
10:50am 1ft 7s 5s 2
mph
1000.9mb 44f 48f
9:50am 1ft 6s 5s 4 9 mph 1000.8mb 44f 47f
8:50am 1ft 14s 4s 4 7 mph 1000.9mb 43f 46f
7:50am 1ft 15s 4s  -  2 mph 1001.4mb 44f 46f
6:50am 1ft 3s 3s 4
mph
1001.6mb 44f 46f
5:50am 1ft 3s 3s 7
mph
1001.8mb 44f 46f
4:50am 1ft 14s 3s 9 11 mph 1002.1mb 44f 45f
3:50am 1ft 3s 3s 13
mph
1002.8mb 44f 46f
2:50am 0.7ft  -  4s 11 13 mph 1003.9mb 44f 46f
1:50am 0.7ft  -  5s 11
mph
1004.8mb 44f 46f
12:50am 0.7ft  -  4s 9 11 mph 1005.7mb 44f 46f
Sat 04/25 11:50pm 1ft 15s 4s 9 11 mph 1006.4mb 44f 46f
10:50pm 0.7ft  -  3s 11 13 mph 1006.7mb 44f 47f
9:50pm 0.7ft  -  4s 11 16 mph 1007.1mb 44f 46f
8:50pm 1ft 8s 5s 7 11 mph 1007.4mb 45f 47f
7:50pm 1ft 16s 6s 7 9 mph 1007.9mb 44f 48f
6:50pm 1ft 16s 5s 2
mph
1008.5mb 44f 47f
5:50pm 1ft 8s 6s 4 7 mph 1008.8mb 44f 45f
4:50pm 1ft 15s 6s 11
mph
1009.2mb 44f 44f
3:50pm 1ft 8s 5s 9 11 mph 1009.9mb 44f 43f
2:50pm 1ft 8s 6s 9 11 mph 1010.5mb 44f 43f
1:50pm 1ft 8s 7s 7 9 mph 1011mb 44f 42f
12:50pm 1ft 8s 7s 4
mph
1011.4mb 44f 42f
11:50am 1ft 9s 7s 4 7 mph 1011.4mb 44f 42f
10:50am 1ft 9s 7s 4 7 mph 1011.5mb 43f 42f
9:50am 1ft 8s 6s 7 9 mph 1011.4mb 43f 41f
8:50am 1ft 8s 5s 9 11 mph 1011.3mb 43f 41f
7:50am 1ft 9s 5s 9 11 mph 1011.2mb 43f 41f
6:50am 1ft 9s 5s 11 13 mph 1011.2mb 43f 41f
5:50am 1ft 9s 7s 11 13 mph 1011.2mb 43f 41f
4:50am 1ft 9s 5s 9 11 mph 1011.2mb 43f 41f
3:50am 0.7ft  -  4s 9 11 mph 1011.2mb 43f 42f
2:50am 1ft 9s 3s 13 16 mph 1011.1mb 43f 42f
1:50am 1ft 9s 4s 11
mph
1011.1mb 43f 42f
12:50am 1ft 9s 4s 7
mph
1010.9mb 44f 42f
Fri 04/24 11:50pm 1ft 9s 4s 9 11 mph 1010.7mb 44f 42f
10:50pm 1ft 10s 5s 11 13 mph 1010.5mb 44f 42f
9:50pm 1ft 9s 7s 9
mph
1010mb 44f 43f
8:50pm 1ft 9s 7s 7
mph
1009.9mb 45f 43f
7:50pm 1.3ft 9s 7s 2 4 mph 1009.8mb 45f 44f
6:50pm 1.3ft 9s 7s 2
mph
1009.8mb 45f 44f
5:50pm 1.3ft 9s 8s 4
mph
1009.8mb 45f 44f
4:50pm 1.3ft 10s 7s 2 4 mph 1010mb 46f 44f
3:50pm 1.3ft 9s 7s 4
mph
1010.1mb 45f 43f
2:50pm 1.3ft 9s 7s 2 4 mph 1010.2mb 46f 42f
1:50pm 1.3ft 9s 7s 2
mph
1010.4mb 45f 42f
12:50pm 1.3ft 10s 8s  -  2 mph 1010.5mb 44f 41f
11:50am 1.3ft 9s 7s 2 4 mph 1010.4mb 43f 41f
10:50am 1.3ft 10s 7s 2 4 mph 1010.2mb 43f 41f
9:50am 1.3ft 10s 6s 2 4 mph 1009.9mb 42f 41f
8:50am 1.3ft 10s 6s 2 4 mph 1009.6mb 42f 41f
7:50am 1.3ft 10s 6s 4
mph
1009.7mb 42f 41f
6:50am 1.3ft 10s 5s 2 4 mph 1009.7mb 42f 41f